Meamina — 2AMK7 — position and weather

sailwx.info

Track history (hours):
 
Tides and Currents Weather Stations Pressure Air Temp Water Temp Dewpoint Dewpoint Depression Visibility Wind Speed Wind Dir Waves Ship Positions

Meamina

Last reported at 2015-Jul-02 09:28 UTC. Time now 2015-Jul-06 11:26 UTC.
Position N 42°23' E 018°32'.

Length 60 m; draft 3.2 m.

MMSI: 235061022.

Date/timePositionNaut miles runAvg speedWind from/ knotsBaromVisibWave heightAir tempDewpointWater temp
2015-Jul-02 09:28N 42°23' E 018°32'7 8.0
2015-Jul-02 08:33N 42°26' E 018°41'0 0.4
2015-Jul-02 07:33N 42°26' E 018°41'3 2.8
2015-Jul-02 06:34N 42°29' E 018°42'3 2.8
2015-Jul-02 05:32N 42°28' E 018°45'0 0.0
2015-Jul-02 04:32N 42°28' E 018°45'0 0.0
2015-Jul-02 03:32N 42°28' E 018°45'0 0.0
2015-Jul-02 02:29N 42°28' E 018°45'0 0.0
2015-Jul-02 01:32N 42°28' E 018°45'0 0.0
2015-Jul-02 00:32N 42°28' E 018°45'0 0.0
2015-Jul-01 23:32N 42°28' E 018°45'0 0.0
2015-Jul-01 22:32N 42°28' E 018°45'0 0.0
2015-Jul-01 21:32N 42°28' E 018°45'0 0.0
2015-Jul-01 20:32N 42°28' E 018°45'0 0.0
2015-Jul-01 19:32N 42°28' E 018°45'0 0.0
2015-Jul-01 18:33N 42°28' E 018°45'3 2.7
2015-Jul-01 17:33N 42°25' E 018°46'0 0.0
2015-Jul-01 16:33N 42°25' E 018°46'0 0.0
2015-Jul-01 15:33N 42°25' E 018°46'0 0.0
2015-Jul-01 14:30N 42°25' E 018°46'0 0.0
2015-Jul-01 13:33N 42°25' E 018°46'0 0.0
2015-Jul-01 12:33N 42°25' E 018°46'0 0.0
2015-Jul-01 11:33N 42°25' E 018°46'0 0.0
2015-Jul-01 10:33N 42°25' E 018°46'0 0.0
2015-Jul-01 09:33N 42°25' E 018°46'0 0.0
2015-Jul-01 08:33N 42°25' E 018°46'0 0.0
2015-Jul-01 07:33N 42°25' E 018°46'0 0.0
2015-Jul-01 06:33N 42°25' E 018°46'0 0.0
2015-Jul-01 05:33N 42°25' E 018°46'0 0.0
2015-Jul-01 04:33N 42°25' E 018°46'0 0.0
2015-Jul-01 03:33N 42°25' E 018°46'0 0.0
2015-Jul-01 02:33N 42°25' E 018°46'0 0.0
2015-Jul-01 01:33N 42°25' E 018°46'0 0.0
2015-Jul-01 00:33N 42°25' E 018°46'0 0.0
2015-Jun-30 23:33N 42°25' E 018°46'0 0.0
2015-Jun-30 22:33N 42°25' E 018°46'0 0.0
2015-Jun-30 21:33N 42°25' E 018°46'0 0.0
2015-Jun-30 20:33N 42°25' E 018°46'0 0.0
2015-Jun-30 19:33N 42°25' E 018°46'0 0.0
2015-Jun-30 18:33N 42°25' E 018°46'0 0.0
2015-Jun-30 17:33N 42°25' E 018°46'0 0.0
2015-Jun-30 16:31N 42°25' E 018°46'0 0.0
2015-Jun-30 15:31N 42°25' E 018°46'0 0.0
2015-Jun-30 14:31N 42°25' E 018°46'0 0.0
2015-Jun-30 13:31N 42°25' E 018°46'0 0.0
2015-Jun-30 12:31N 42°25' E 018°46'0 0.0
2015-Jun-30 11:31N 42°25' E 018°46'0 0.0
2015-Jun-30 10:31N 42°25' E 018°46'0 0.0
2015-Jun-30 09:31N 42°25' E 018°46'0 0.0
2015-Jun-30 08:33N 42°25' E 018°46'0 0.0
2015-Jun-30 07:33N 42°25' E 018°46'0 0.0
2015-Jun-30 06:33N 42°25' E 018°46'0 0.0
2015-Jun-30 05:33N 42°25' E 018°46'0 0.0
2015-Jun-30 04:33N 42°25' E 018°46'0 0.0
2015-Jun-30 03:33N 42°25' E 018°46'0 0.0
2015-Jun-30 02:33N 42°25' E 018°46'0 0.0
2015-Jun-30 01:33N 42°25' E 018°46'0 0.0
2015-Jun-30 00:30N 42°25' E 018°46'0 0.0
2015-Jun-29 23:32N 42°25' E 018°46'0 0.0
2015-Jun-29 22:32N 42°25' E 018°46'0 0.0
2015-Jun-29 21:33N 42°25' E 018°46'0 0.0
2015-Jun-29 20:33N 42°25' E 018°46'0 0.0
2015-Jun-29 19:33N 42°25' E 018°46'0 0.0
2015-Jun-29 18:32N 42°25' E 018°46'0 0.0
2015-Jun-29 17:32N 42°25' E 018°46'0 0.0
2015-Jun-29 16:31N 42°25' E 018°46'0 0.0
2015-Jun-29 15:31N 42°25' E 018°46'0 0.0
2015-Jun-29 14:31N 42°25' E 018°46'0 0.0
2015-Jun-29 13:31N 42°25' E 018°46'0 0.0
2015-Jun-29 12:28N 42°25' E 018°46'0 0.0
2015-Jun-29 11:31N 42°25' E 018°46'0 0.0
2015-Jun-29 10:31N 42°25' E 018°46'0 0.0
2015-Jun-29 09:32N 42°25' E 018°46'0 0.0
2015-Jun-29 08:31N 42°25' E 018°46'0 0.0
2015-Jun-29 07:33N 42°25' E 018°46'5 4.8
2015-Jun-29 06:34N 42°29' E 018°41'3 3.3
2015-Jun-29 05:33N 42°25' E 018°42'0 0.0
2015-Jun-29 04:33N 42°25' E 018°42'0 0.0
2015-Jun-29 03:33N 42°25' E 018°42'0 0.0
2015-Jun-29 02:33N 42°25' E 018°42'0 0.0
2015-Jun-29 01:33N 42°25' E 018°42'0 0.0
2015-Jun-29 00:33N 42°25' E 018°42'0 0.0
2015-Jun-28 23:33N 42°25' E 018°42'0 0.0
2015-Jun-28 22:33N 42°25' E 018°42'0 0.0
2015-Jun-28 21:33N 42°25' E 018°42'0 0.0
2015-Jun-28 20:33N 42°25' E 018°42'0 0.0
2015-Jun-28 19:33N 42°25' E 018°42'0 0.0
2015-Jun-28 18:33N 42°25' E 018°42'0 0.0
2015-Jun-28 17:33N 42°25' E 018°42'0 0.1
2015-Jun-28 16:33N 42°25' E 018°41'1 0.8
2015-Jun-28 15:33N 42°26' E 018°41'0 0.0
2015-Jun-28 14:33N 42°26' E 018°41'6 6.4
2015-Jun-28 13:33N 42°26' E 018°32'1111.2
2015-Jun-28 12:33N 42°15' E 018°36'46610.1
2015-Jun-26 14:33N 36°24' E 025°13'10 9.9
2015-Jun-26 13:33N 36°25' E 025°25'0 0.0
2015-Jun-26 12:31N 36°25' E 025°25'0 0.0
2015-Jun-26 11:32N 36°25' E 025°25'0 0.0
2015-Jun-26 10:32N 36°25' E 025°25'0 0.0
2015-Jun-26 09:32N 36°25' E 025°25'0 0.0
2015-Jun-26 08:32N 36°25' E 025°25'0 0.0
2015-Jun-26 07:32N 36°25' E 025°25'4 4.6
2015-Jun-26 06:33N 36°28' E 025°21'41 1.5
2015-Jun-25 04:18N 36°40' E 024°33'1211.6
2015-Jun-25 03:18N 36°49' E 024°42'  
2015-Jun-22 19:33N 37°24' E 025°21'0 0.0
2015-Jun-22 18:33N 37°24' E 025°21'0 0.0
2015-Jun-22 17:33N 37°24' E 025°21'0 0.0
2015-Jun-22 16:33N 37°24' E 025°21'0 0.0
2015-Jun-22 15:33N 37°24' E 025°21'0 0.0
2015-Jun-22 14:33N 37°24' E 025°21'0 0.0
2015-Jun-22 13:33N 37°24' E 025°21'0 0.0
2015-Jun-22 12:27N 37°24' E 025°21'0 0.0
2015-Jun-22 11:33N 37°24' E 025°21'0 0.0
2015-Jun-22 10:33N 37°24' E 025°21'0 0.0
2015-Jun-22 09:33N 37°24' E 025°21'  
Track history (hours):
 
Tides and Currents Weather Stations Pressure Air Temp Water Temp Dewpoint Dewpoint Depression Visibility Wind Speed Wind Dir Waves Ship Positions

Meamina

Last reported at 2015-Jul-02 09:28 UTC. Time now 2015-Jul-06 11:26 UTC.
Position N 42°23' E 018°32'.

Length 60 m; draft 3.2 m.

MMSI: 235061022.

Date/timePositionNaut miles runAvg speedWind from/ knotsBaromVisibWave heightAir tempDewpointWater temp
2015-Jul-02 09:28N 42°23' E 018°32'7 8.0
2015-Jul-02 08:33N 42°26' E 018°41'0 0.4
2015-Jul-02 07:33N 42°26' E 018°41'3 2.8
2015-Jul-02 06:34N 42°29' E 018°42'3 2.8
2015-Jul-02 05:32N 42°28' E 018°45'0 0.0
2015-Jul-02 04:32N 42°28' E 018°45'0 0.0
2015-Jul-02 03:32N 42°28' E 018°45'0 0.0
2015-Jul-02 02:29N 42°28' E 018°45'0 0.0
2015-Jul-02 01:32N 42°28' E 018°45'0 0.0
2015-Jul-02 00:32N 42°28' E 018°45'0 0.0
2015-Jul-01 23:32N 42°28' E 018°45'0 0.0
2015-Jul-01 22:32N 42°28' E 018°45'0 0.0
2015-Jul-01 21:32N 42°28' E 018°45'0 0.0
2015-Jul-01 20:32N 42°28' E 018°45'0 0.0
2015-Jul-01 19:32N 42°28' E 018°45'0 0.0
2015-Jul-01 18:33N 42°28' E 018°45'3 2.7
2015-Jul-01 17:33N 42°25' E 018°46'0 0.0
2015-Jul-01 16:33N 42°25' E 018°46'0 0.0
2015-Jul-01 15:33N 42°25' E 018°46'0 0.0
2015-Jul-01 14:30N 42°25' E 018°46'0 0.0
2015-Jul-01 13:33N 42°25' E 018°46'0 0.0
2015-Jul-01 12:33N 42°25' E 018°46'0 0.0
2015-Jul-01 11:33N 42°25' E 018°46'0 0.0
2015-Jul-01 10:33N 42°25' E 018°46'0 0.0
2015-Jul-01 09:33N 42°25' E 018°46'0 0.0
2015-Jul-01 08:33N 42°25' E 018°46'0 0.0
2015-Jul-01 07:33N 42°25' E 018°46'0 0.0
2015-Jul-01 06:33N 42°25' E 018°46'0 0.0
2015-Jul-01 05:33N 42°25' E 018°46'0 0.0
2015-Jul-01 04:33N 42°25' E 018°46'0 0.0
2015-Jul-01 03:33N 42°25' E 018°46'0 0.0
2015-Jul-01 02:33N 42°25' E 018°46'0 0.0
2015-Jul-01 01:33N 42°25' E 018°46'0 0.0
2015-Jul-01 00:33N 42°25' E 018°46'0 0.0
2015-Jun-30 23:33N 42°25' E 018°46'0 0.0
2015-Jun-30 22:33N 42°25' E 018°46'0 0.0
2015-Jun-30 21:33N 42°25' E 018°46'0 0.0
2015-Jun-30 20:33N 42°25' E 018°46'0 0.0
2015-Jun-30 19:33N 42°25' E 018°46'0 0.0
2015-Jun-30 18:33N 42°25' E 018°46'0 0.0
2015-Jun-30 17:33N 42°25' E 018°46'0 0.0
2015-Jun-30 16:31N 42°25' E 018°46'0 0.0
2015-Jun-30 15:31N 42°25' E 018°46'0 0.0
2015-Jun-30 14:31N 42°25' E 018°46'0 0.0
2015-Jun-30 13:31N 42°25' E 018°46'0 0.0
2015-Jun-30 12:31N 42°25' E 018°46'0 0.0
2015-Jun-30 11:31N 42°25' E 018°46'0 0.0
2015-Jun-30 10:31N 42°25' E 018°46'0 0.0
2015-Jun-30 09:31N 42°25' E 018°46'0 0.0
2015-Jun-30 08:33N 42°25' E 018°46'0 0.0
2015-Jun-30 07:33N 42°25' E 018°46'0 0.0
2015-Jun-30 06:33N 42°25' E 018°46'0 0.0
2015-Jun-30 05:33N 42°25' E 018°46'0 0.0
2015-Jun-30 04:33N 42°25' E 018°46'0 0.0
2015-Jun-30 03:33N 42°25' E 018°46'0 0.0
2015-Jun-30 02:33N 42°25' E 018°46'0 0.0
2015-Jun-30 01:33N 42°25' E 018°46'0 0.0
2015-Jun-30 00:30N 42°25' E 018°46'0 0.0
2015-Jun-29 23:32N 42°25' E 018°46'0 0.0
2015-Jun-29 22:32N 42°25' E 018°46'0 0.0
2015-Jun-29 21:33N 42°25' E 018°46'0 0.0
2015-Jun-29 20:33N 42°25' E 018°46'0 0.0
2015-Jun-29 19:33N 42°25' E 018°46'0 0.0
2015-Jun-29 18:32N 42°25' E 018°46'0 0.0
2015-Jun-29 17:32N 42°25' E 018°46'0 0.0
2015-Jun-29 16:31N 42°25' E 018°46'0 0.0
2015-Jun-29 15:31N 42°25' E 018°46'0 0.0
2015-Jun-29 14:31N 42°25' E 018°46'0 0.0
2015-Jun-29 13:31N 42°25' E 018°46'0 0.0
2015-Jun-29 12:28N 42°25' E 018°46'0 0.0
2015-Jun-29 11:31N 42°25' E 018°46'0 0.0
2015-Jun-29 10:31N 42°25' E 018°46'0 0.0
2015-Jun-29 09:32N 42°25' E 018°46'0 0.0
2015-Jun-29 08:31N 42°25' E 018°46'0 0.0
2015-Jun-29 07:33N 42°25' E 018°46'5 4.8
2015-Jun-29 06:34N 42°29' E 018°41'3 3.3
2015-Jun-29 05:33N 42°25' E 018°42'0 0.0
2015-Jun-29 04:33N 42°25' E 018°42'0 0.0
2015-Jun-29 03:33N 42°25' E 018°42'0 0.0
2015-Jun-29 02:33N 42°25' E 018°42'0 0.0
2015-Jun-29 01:33N 42°25' E 018°42'0 0.0
2015-Jun-29 00:33N 42°25' E 018°42'0 0.0
2015-Jun-28 23:33N 42°25' E 018°42'0 0.0
2015-Jun-28 22:33N 42°25' E 018°42'0 0.0
2015-Jun-28 21:33N 42°25' E 018°42'0 0.0
2015-Jun-28 20:33N 42°25' E 018°42'0 0.0
2015-Jun-28 19:33N 42°25' E 018°42'0 0.0
2015-Jun-28 18:33N 42°25' E 018°42'0 0.0
2015-Jun-28 17:33N 42°25' E 018°42'0 0.1
2015-Jun-28 16:33N 42°25' E 018°41'1 0.8
2015-Jun-28 15:33N 42°26' E 018°41'0 0.0
2015-Jun-28 14:33N 42°26' E 018°41'6 6.4
2015-Jun-28 13:33N 42°26' E 018°32'1111.2
2015-Jun-28 12:33N 42°15' E 018°36'46610.1
2015-Jun-26 14:33N 36°24' E 025°13'10 9.9
2015-Jun-26 13:33N 36°25' E 025°25'0 0.0
2015-Jun-26 12:31N 36°25' E 025°25'0 0.0
2015-Jun-26 11:32N 36°25' E 025°25'0 0.0
2015-Jun-26 10:32N 36°25' E 025°25'0 0.0
2015-Jun-26 09:32N 36°25' E 025°25'0 0.0
2015-Jun-26 08:32N 36°25' E 025°25'0 0.0
2015-Jun-26 07:32N 36°25' E 025°25'4 4.6
2015-Jun-26 06:33N 36°28' E 025°21'41 1.5
2015-Jun-25 04:18N 36°40' E 024°33'1211.6
2015-Jun-25 03:18N 36°49' E 024°42'  
2015-Jun-22 19:33N 37°24' E 025°21'0 0.0
2015-Jun-22 18:33N 37°24' E 025°21'0 0.0
2015-Jun-22 17:33N 37°24' E 025°21'0 0.0
2015-Jun-22 16:33N 37°24' E 025°21'0 0.0
2015-Jun-22 15:33N 37°24' E 025°21'0 0.0
2015-Jun-22 14:33N 37°24' E 025°21'0 0.0
2015-Jun-22 13:33N 37°24' E 025°21'0 0.0
2015-Jun-22 12:27N 37°24' E 025°21'0 0.0
2015-Jun-22 11:33N 37°24' E 025°21'0 0.0
2015-Jun-22 10:33N 37°24' E 025°21'0 0.0
2015-Jun-22 09:33N 37°24' E 025°21'  

Dump ship's entire track history